createdAt,value
2022-09-15T00:01:42.978Z,75.83
2022-09-15T00:04:11.231Z,75.93
2022-09-15T00:06:39.380Z,76.01
2022-09-15T00:09:07.522Z,75.89
2022-09-15T00:11:37.640Z,75.88
2022-09-15T00:14:08.182Z,75.98
2022-09-15T00:16:36.582Z,76.51
2022-09-15T00:19:06.454Z,76.45
2022-09-15T00:21:37.779Z,76.34
2022-09-15T00:24:06.462Z,76.43
2022-09-15T00:26:35.218Z,76.59
2022-09-15T00:29:03.421Z,76.54
2022-09-15T00:31:33.455Z,76.30
2022-09-15T00:34:03.084Z,76.57
2022-09-15T00:36:31.713Z,76.50
2022-09-15T00:38:59.781Z,76.56
2022-09-15T00:41:28.223Z,76.53
2022-09-15T00:44:05.616Z,76.36
2022-09-15T00:46:41.249Z,76.41
2022-09-15T00:49:30.949Z,76.09
2022-09-15T00:52:20.274Z,76.21
2022-09-15T00:54:51.067Z,76.02
2022-09-15T00:57:26.141Z,76.20
2022-09-15T00:59:57.048Z,76.50
2022-09-15T01:02:29.616Z,76.27
2022-09-15T01:04:59.115Z,76.47
2022-09-15T01:07:33.440Z,76.47
2022-09-15T01:10:12.393Z,76.53
2022-09-15T01:12:42.277Z,76.52
2022-09-15T01:15:10.886Z,76.34
2022-09-15T01:17:56.988Z,76.84
2022-09-15T01:20:34.419Z,76.69
2022-09-15T01:23:20.478Z,76.53
2022-09-15T01:26:17.808Z,76.69
2022-09-15T01:29:07.442Z,77.24
2022-09-15T01:32:06.165Z,77.29
2022-09-15T01:34:42.092Z,77.39
2022-09-15T01:37:17.991Z,77.48
2022-09-15T01:39:50.509Z,77.71
2022-09-15T01:42:20.152Z,77.61
2022-09-15T01:44:55.137Z,77.55
2022-09-15T01:47:25.591Z,77.80
2022-09-15T01:50:10.772Z,77.70
2022-09-15T01:52:43.234Z,77.83
2022-09-15T01:55:22.945Z,77.58
2022-09-15T01:57:51.384Z,77.35
2022-09-15T02:00:19.397Z,77.68
2022-09-15T02:03:01.899Z,77.54
2022-09-15T02:05:34.073Z,77.61
2022-09-15T02:08:13.211Z,77.66
2022-09-15T02:10:45.275Z,77.28
2022-09-15T02:13:38.352Z,77.75
2022-09-15T02:16:19.913Z,77.64
2022-09-15T02:19:10.968Z,77.91
2022-09-15T02:21:53.505Z,77.70
2022-09-15T02:24:29.291Z,77.73
2022-09-15T02:26:58.408Z,77.85
2022-09-15T02:29:29.413Z,78.00
2022-09-15T02:32:06.873Z,78.07
2022-09-15T02:34:42.947Z,77.97
2022-09-15T02:37:13.120Z,78.17
2022-09-15T02:39:47.050Z,78.13
2022-09-15T02:42:27.682Z,78.47
2022-09-15T02:44:56.485Z,78.46
2022-09-15T02:47:25.531Z,78.68
2022-09-15T02:49:53.999Z,78.88
2022-09-15T02:52:21.966Z,78.54
2022-09-15T02:54:50.621Z,78.79
2022-09-15T02:57:18.679Z,78.77
2022-09-15T03:00:05.739Z,78.85
2022-09-15T03:02:34.599Z,78.77
2022-09-15T03:05:02.662Z,78.82
2022-09-15T03:07:32.260Z,78.99
2022-09-15T03:10:00.332Z,78.95
2022-09-15T03:12:28.477Z,79.05
2022-09-15T03:14:56.546Z,79.11
2022-09-15T03:17:24.558Z,79.17
2022-09-15T03:19:52.647Z,79.04
2022-09-15T03:22:20.695Z,79.38
2022-09-15T03:24:48.714Z,79.27
2022-09-15T03:27:16.737Z,79.26
2022-09-15T03:29:44.965Z,79.47
2022-09-15T03:32:12.877Z,79.37
2022-09-15T03:34:40.914Z,79.26
2022-09-15T03:37:09.020Z,79.00
2022-09-15T03:39:37.599Z,78.83
2022-09-15T03:42:08.058Z,78.80
2022-09-15T03:44:36.061Z,78.48
2022-09-15T03:47:04.284Z,78.49
2022-09-15T03:49:32.224Z,78.57
2022-09-15T03:52:00.214Z,78.81
2022-09-15T03:54:28.190Z,78.86
2022-09-15T03:56:56.310Z,79.14
2022-09-15T03:59:24.359Z,78.78
2022-09-15T04:01:52.595Z,78.85
2022-09-15T04:04:20.614Z,78.83
2022-09-15T04:06:48.620Z,78.94
2022-09-15T04:09:16.605Z,79.03
2022-09-15T04:11:44.683Z,79.28
2022-09-15T04:14:12.983Z,79.28
2022-09-15T04:16:41.140Z,79.36
2022-09-15T04:19:09.506Z,79.36
2022-09-15T04:21:37.621Z,79.10
2022-09-15T04:24:06.108Z,79.16
2022-09-15T04:26:36.360Z,79.04
2022-09-15T04:29:11.564Z,79.28
2022-09-15T04:31:39.790Z,79.06
2022-09-15T04:34:07.899Z,78.98
2022-09-15T04:36:37.374Z,78.94
2022-09-15T04:39:06.708Z,78.86
2022-09-15T04:41:34.862Z,78.99
2022-09-15T04:44:03.077Z,79.13
2022-09-15T04:46:31.329Z,78.86
2022-09-15T04:48:59.398Z,78.69
2022-09-15T04:51:27.559Z,78.90
2022-09-15T04:53:55.851Z,78.80
2022-09-15T04:56:25.911Z,78.83
2022-09-15T04:59:03.816Z,78.28
2022-09-15T05:01:35.621Z,78.19
2022-09-15T05:04:04.844Z,78.31
2022-09-15T05:06:35.124Z,78.19
2022-09-15T05:09:10.049Z,78.03
2022-09-15T05:11:38.985Z,78.27
2022-09-15T05:14:08.399Z,78.22
2022-09-15T05:16:36.630Z,78.12
2022-09-15T05:19:04.913Z,78.15
2022-09-15T05:21:33.208Z,78.37
2022-09-15T05:24:01.634Z,78.19
2022-09-15T05:26:30.613Z,77.96
2022-09-15T05:28:58.680Z,78.14
2022-09-15T05:31:31.195Z,78.31
2022-09-15T05:34:05.582Z,77.85
2022-09-15T05:36:34.067Z,77.72
2022-09-15T05:39:02.259Z,77.88
2022-09-15T05:41:30.970Z,77.84
2022-09-15T05:43:59.448Z,77.54
2022-09-15T05:46:29.206Z,77.40
2022-09-15T05:48:58.949Z,77.34
2022-09-15T05:51:27.838Z,77.57
2022-09-15T05:53:56.258Z,77.81
2022-09-15T05:56:24.267Z,77.47
2022-09-15T05:58:52.536Z,77.59
2022-09-15T06:01:23.824Z,77.33
2022-09-15T06:03:53.510Z,77.74
2022-09-15T06:06:24.059Z,77.52
2022-09-15T06:08:57.939Z,77.67
2022-09-15T06:11:29.101Z,77.83
2022-09-15T06:14:03.137Z,77.81
2022-09-15T06:16:34.700Z,78.08
2022-09-15T06:19:03.640Z,78.36
2022-09-15T06:21:33.427Z,77.91
2022-09-15T06:24:04.693Z,77.40
2022-09-15T06:26:33.722Z,77.58
2022-09-15T06:29:03.942Z,77.48
2022-09-15T06:31:34.217Z,77.44
2022-09-15T06:34:04.058Z,77.50
2022-09-15T06:36:32.941Z,77.82
2022-09-15T06:39:01.036Z,77.72
2022-09-15T06:41:35.353Z,77.78
2022-09-15T06:44:15.103Z,77.99
2022-09-15T06:46:43.337Z,77.49
2022-09-15T06:49:11.401Z,77.22
2022-09-15T06:51:39.516Z,77.27
2022-09-15T06:54:07.547Z,76.48
2022-09-15T06:56:38.076Z,75.94
2022-09-15T06:59:06.737Z,75.13
2022-09-15T07:01:39.252Z,74.47
2022-09-15T07:04:10.913Z,74.33
2022-09-15T07:06:40.217Z,73.93
2022-09-15T07:09:08.492Z,74.16
2022-09-15T07:11:36.575Z,73.49
2022-09-15T07:14:05.080Z,73.54
2022-09-15T07:16:33.615Z,73.85
2022-09-15T07:19:03.853Z,73.85
2022-09-15T07:21:32.250Z,73.54
2022-09-15T07:24:03.826Z,73.49
2022-09-15T07:26:35.405Z,73.04
2022-09-15T07:29:06.023Z,72.71
2022-09-15T07:31:36.736Z,72.65
2022-09-15T07:34:05.285Z,72.90
2022-09-15T07:36:33.630Z,72.68
2022-09-15T07:39:03.897Z,72.43
2022-09-15T07:41:33.196Z,72.44
2022-09-15T07:44:01.410Z,72.22
2022-09-15T07:46:32.235Z,72.27
2022-09-15T07:49:03.188Z,72.36
2022-09-15T07:51:31.774Z,72.28
2022-09-15T07:54:00.363Z,72.85
2022-09-15T07:56:28.374Z,73.09
2022-09-15T07:58:57.071Z,73.10
2022-09-15T08:01:25.217Z,73.02
2022-09-15T08:03:53.596Z,72.88
2022-09-15T08:06:24.322Z,72.92
2022-09-15T08:08:57.693Z,73.03
2022-09-15T08:11:29.071Z,72.95
2022-09-15T08:14:01.640Z,72.82
2022-09-15T08:16:30.001Z,72.64
2022-09-15T08:18:59.528Z,72.21
2022-09-15T08:21:28.434Z,72.16
2022-09-15T08:23:58.921Z,71.83
2022-09-15T08:26:28.390Z,71.34
2022-09-15T08:28:56.466Z,71.35
2022-09-15T08:31:25.210Z,70.68
2022-09-15T08:33:55.509Z,70.65
2022-09-15T08:36:28.036Z,70.23
2022-09-15T08:38:56.912Z,70.16
2022-09-15T08:41:29.792Z,69.62
2022-09-15T08:44:08.525Z,69.14
2022-09-15T08:47:10.362Z,69.48
2022-09-15T08:50:01.585Z,69.07
2022-09-15T08:52:39.446Z,69.14
2022-09-15T08:55:17.940Z,68.64
2022-09-15T08:57:45.979Z,68.95
2022-09-15T09:00:16.811Z,68.87
2022-09-15T09:03:03.791Z,69.15
2022-09-15T09:05:44.330Z,69.00
2022-09-15T09:08:34.057Z,69.29
2022-09-15T09:11:40.991Z,69.21
2022-09-15T09:14:29.063Z,69.17
2022-09-15T09:17:12.342Z,69.13
2022-09-15T09:19:49.301Z,69.19
2022-09-15T09:22:23.253Z,68.69
2022-09-15T09:24:58.033Z,68.65
2022-09-15T09:27:36.148Z,68.88
2022-09-15T09:30:17.740Z,69.00
2022-09-15T09:33:15.471Z,68.69
2022-09-15T09:35:47.041Z,68.61
2022-09-15T09:38:44.315Z,68.44
2022-09-15T09:41:17.127Z,68.33
2022-09-15T09:43:47.834Z,68.60
2022-09-15T09:46:20.483Z,68.59
2022-09-15T09:49:13.543Z,68.16
2022-09-15T09:51:53.080Z,68.07
2022-09-15T09:54:25.176Z,67.90
2022-09-15T09:56:54.644Z,68.14
2022-09-15T09:59:35.264Z,68.41
2022-09-15T10:02:12.098Z,68.68
2022-09-15T10:04:48.721Z,68.42
2022-09-15T10:07:21.598Z,68.12
2022-09-15T10:09:55.762Z,67.17
2022-09-15T10:12:38.758Z,66.62
2022-09-15T10:15:19.743Z,66.20
2022-09-15T10:17:49.589Z,66.27
2022-09-15T10:20:25.915Z,66.18
2022-09-15T10:23:24.726Z,65.98
2022-09-15T10:25:59.961Z,66.07
2022-09-15T10:28:29.005Z,65.96
2022-09-15T10:31:25.985Z,65.95
2022-09-15T10:33:54.251Z,65.96
2022-09-15T10:36:32.395Z,66.07
2022-09-15T10:39:28.510Z,65.79
2022-09-15T10:42:07.254Z,65.72
2022-09-15T10:44:52.618Z,65.87
2022-09-15T10:47:49.652Z,64.99
2022-09-15T10:50:25.987Z,65.12
2022-09-15T10:53:29.352Z,64.62
2022-09-15T10:56:12.952Z,64.40
2022-09-15T10:58:48.559Z,63.98
2022-09-15T11:01:33.328Z,64.13
2022-09-15T11:04:26.174Z,64.30
2022-09-15T11:07:31.657Z,63.81
2022-09-15T11:10:21.064Z,63.48
2022-09-15T11:13:17.569Z,62.90
2022-09-15T11:15:48.222Z,63.42
2022-09-15T11:18:40.827Z,62.98
2022-09-15T11:21:36.495Z,62.75
2022-09-15T11:24:31.761Z,62.21
2022-09-15T11:27:19.032Z,61.64
2022-09-15T11:29:46.968Z,61.82
2022-09-15T11:32:25.120Z,61.80
2022-09-15T11:35:08.256Z,61.67
2022-09-15T11:37:43.869Z,61.72
2022-09-15T11:40:28.999Z,61.81
2022-09-15T11:43:03.920Z,61.36
2022-09-15T11:45:43.752Z,61.25
2022-09-15T11:48:21.878Z,61.07
2022-09-15T11:50:56.496Z,61.47
2022-09-15T11:53:38.544Z,61.18
2022-09-15T11:56:24.779Z,61.29
2022-09-15T11:59:27.680Z,60.98
2022-09-15T12:01:59.453Z,60.96
2022-09-15T12:04:33.428Z,60.95
2022-09-15T12:07:20.428Z,60.64
2022-09-15T12:09:50.004Z,60.83
2022-09-15T12:12:21.698Z,60.32
2022-09-15T12:14:53.179Z,60.09
2022-09-15T12:17:30.142Z,57.95
2022-09-15T12:20:14.539Z,56.31
2022-09-15T12:23:01.672Z,55.93
2022-09-15T12:25:41.536Z,55.52
2022-09-15T12:28:38.674Z,54.82
2022-09-15T12:31:14.629Z,54.23
2022-09-15T12:33:42.775Z,53.08
2022-09-15T12:36:46.326Z,52.74
2022-09-15T12:39:43.483Z,52.98
2022-09-15T12:42:26.742Z,52.21
2022-09-15T12:44:59.027Z,52.52
2022-09-15T12:47:29.874Z,52.25
2022-09-15T12:50:26.726Z,52.21
2022-09-15T12:53:04.070Z,51.90
2022-09-15T12:55:37.986Z,52.58
2022-09-15T12:58:15.767Z,52.04
2022-09-15T13:06:23.605Z,51.99
2022-09-15T13:09:02.211Z,51.56
2022-09-15T13:11:50.244Z,51.26
2022-09-15T13:14:28.101Z,50.24
2022-09-15T13:17:14.391Z,50.15
2022-09-15T13:19:57.770Z,50.52
2022-09-15T13:22:34.292Z,50.37
2022-09-15T13:25:05.158Z,50.97
2022-09-15T13:27:58.354Z,51.27
2022-09-15T13:31:02.735Z,51.54
2022-09-15T13:39:59.945Z,51.60
2022-09-15T13:42:57.843Z,52.05
2022-09-15T13:45:50.823Z,52.14
2022-09-15T13:48:33.418Z,52.78
2022-09-15T13:51:12.844Z,53.56
2022-09-15T13:53:45.356Z,52.81
2022-09-15T13:56:28.028Z,52.66
2022-09-15T13:59:10.552Z,52.97
2022-09-15T14:01:43.205Z,54.32
2022-09-15T14:04:22.502Z,54.59
2022-09-15T14:06:57.088Z,54.35
2022-09-15T14:09:31.940Z,54.15
2022-09-15T14:12:05.193Z,53.13
2022-09-15T14:14:47.189Z,52.73
2022-09-15T14:17:34.534Z,51.11
2022-09-15T14:20:04.792Z,51.08
2022-09-15T14:22:34.680Z,51.63
2022-09-15T14:25:09.337Z,51.57
2022-09-15T14:27:43.271Z,51.96
2022-09-15T14:30:29.441Z,52.38
2022-09-15T14:33:02.931Z,51.96
2022-09-15T14:35:37.937Z,51.93
2022-09-15T14:38:05.978Z,52.05
2022-09-15T14:40:39.480Z,52.38
2022-09-15T14:43:29.316Z,53.25
2022-09-15T14:46:13.901Z,52.96
2022-09-15T14:48:42.115Z,53.22
2022-09-15T14:51:33.233Z,53.20
2022-09-15T14:54:05.611Z,53.86
2022-09-15T14:56:37.924Z,53.47
2022-09-15T14:59:14.669Z,53.45
2022-09-15T15:02:02.933Z,53.51
2022-09-15T15:04:44.022Z,54.10
2022-09-15T15:07:12.819Z,54.14
2022-09-15T15:09:54.622Z,54.10
2022-09-15T15:12:27.157Z,54.13
2022-09-15T15:14:56.753Z,54.21
2022-09-15T15:17:55.041Z,55.04
2022-09-15T15:20:27.083Z,54.98
2022-09-15T15:23:17.020Z,55.37
2022-09-15T15:25:47.073Z,55.74
2022-09-15T15:28:36.008Z,55.44
2022-09-15T15:31:18.238Z,55.95
2022-09-15T15:33:53.207Z,56.44
2022-09-15T15:36:24.194Z,56.14
2022-09-15T15:39:22.001Z,55.82
2022-09-15T15:42:03.018Z,55.88
2022-09-15T15:44:31.854Z,56.28
2022-09-15T15:47:02.843Z,56.20
2022-09-15T15:49:32.766Z,55.66
2022-09-15T15:52:01.981Z,55.60
2022-09-15T15:54:33.783Z,55.91
2022-09-15T15:57:24.869Z,56.33
2022-09-15T15:59:59.049Z,56.37
2022-09-15T16:02:28.008Z,57.11
2022-09-15T16:04:56.174Z,57.30
2022-09-15T16:07:31.097Z,57.48
2022-09-15T16:10:01.629Z,57.43
2022-09-15T16:12:31.997Z,57.36
2022-09-15T16:15:10.613Z,57.61
2022-09-15T16:17:40.892Z,57.55
2022-09-15T16:20:13.181Z,57.27
2022-09-15T16:22:41.446Z,57.14
2022-09-15T16:25:16.084Z,57.22
2022-09-15T16:27:44.583Z,57.15
2022-09-15T16:30:12.626Z,57.27
2022-09-15T16:32:43.312Z,57.25
2022-09-15T16:35:28.112Z,57.55
2022-09-15T16:37:56.231Z,57.97
2022-09-15T16:40:24.518Z,57.58
2022-09-15T16:42:52.834Z,58.22
2022-09-15T16:45:38.145Z,58.24
2022-09-15T16:48:13.024Z,59.05
2022-09-15T16:50:50.493Z,58.86
2022-09-15T16:53:26.810Z,59.50
2022-09-15T16:55:57.587Z,59.15
2022-09-15T16:58:25.806Z,59.39
2022-09-15T17:00:54.117Z,59.65
2022-09-15T17:03:24.711Z,59.57
2022-09-15T17:05:59.570Z,59.71
2022-09-15T17:08:30.612Z,59.58
2022-09-15T17:11:01.785Z,60.10
2022-09-15T17:13:33.447Z,60.13
2022-09-15T17:16:02.640Z,59.95
2022-09-15T17:18:30.931Z,60.32
2022-09-15T17:20:59.691Z,60.40
2022-09-15T17:23:35.050Z,60.50
2022-09-15T17:26:06.528Z,60.64
2022-09-15T17:28:36.670Z,61.02
2022-09-15T17:31:12.350Z,61.00
2022-09-15T17:33:41.140Z,60.94
2022-09-15T17:36:09.220Z,61.14
2022-09-15T17:38:37.270Z,61.02
2022-09-15T17:41:05.590Z,61.17
2022-09-15T17:43:33.632Z,61.42
2022-09-15T17:46:01.747Z,62.29
2022-09-15T17:48:29.810Z,63.08
2022-09-15T17:50:58.525Z,63.67
2022-09-15T17:53:30.829Z,64.36
2022-09-15T17:55:59.011Z,65.48
2022-09-15T17:58:29.988Z,66.02
2022-09-15T18:00:58.668Z,66.66
2022-09-15T18:03:36.070Z,67.47
2022-09-15T18:06:07.105Z,67.88
2022-09-15T18:08:36.216Z,68.39
2022-09-15T18:11:06.364Z,68.58
2022-09-15T18:13:34.974Z,68.89
2022-09-15T18:16:05.363Z,69.64
2022-09-15T18:18:34.339Z,69.73
2022-09-15T18:21:09.828Z,70.24
2022-09-15T18:23:39.322Z,70.23
2022-09-15T18:26:07.519Z,70.11
2022-09-15T18:28:35.711Z,70.05
2022-09-15T18:31:03.871Z,69.95
2022-09-15T18:33:32.101Z,69.49
2022-09-15T18:36:00.200Z,69.26
2022-09-15T18:38:28.187Z,69.04
2022-09-15T18:40:57.759Z,69.22
2022-09-15T18:43:28.467Z,69.44
2022-09-15T18:46:00.654Z,69.56
2022-09-15T18:48:30.943Z,68.58
2022-09-15T18:50:58.983Z,67.98
2022-09-15T18:53:27.252Z,67.97
2022-09-15T18:55:55.329Z,68.38
2022-09-15T18:58:24.304Z,68.37
2022-09-15T19:00:52.227Z,68.30
2022-09-15T19:03:20.193Z,68.66
2022-09-15T19:05:48.650Z,68.88
2022-09-15T19:08:17.241Z,69.20
2022-09-15T19:10:45.319Z,69.65
2022-09-15T19:13:14.345Z,70.11
2022-09-15T19:15:44.271Z,70.26
2022-09-15T19:18:12.930Z,70.86
2022-09-15T19:20:40.976Z,70.93
2022-09-15T19:23:09.750Z,71.31
2022-09-15T19:25:38.130Z,71.60
2022-09-15T19:28:06.090Z,72.02
2022-09-15T19:30:35.081Z,72.26
2022-09-15T19:33:05.740Z,72.34
2022-09-15T19:35:33.984Z,72.25
2022-09-15T19:38:02.047Z,72.43
2022-09-15T19:40:30.303Z,72.66
2022-09-15T19:42:58.261Z,72.93
2022-09-15T19:45:26.913Z,72.83
2022-09-15T19:47:55.020Z,72.96
2022-09-15T19:50:23.433Z,72.74
2022-09-15T19:52:52.699Z,72.93
2022-09-15T19:55:23.294Z,72.63
2022-09-15T19:57:51.380Z,73.23
2022-09-15T20:00:19.350Z,73.63
2022-09-15T20:02:48.802Z,73.28
2022-09-15T20:05:16.816Z,73.26
2022-09-15T20:07:47.237Z,73.12
2022-09-15T20:10:16.371Z,73.20
2022-09-15T20:12:44.843Z,73.13
2022-09-15T20:15:12.952Z,73.00
2022-09-15T20:17:42.542Z,72.92
2022-09-15T20:20:11.967Z,72.65
2022-09-15T20:22:40.943Z,72.88
2022-09-15T20:25:09.028Z,72.89
2022-09-15T20:27:37.599Z,73.04
2022-09-15T20:30:06.923Z,72.88
2022-09-15T20:32:35.123Z,73.10
2022-09-15T20:35:03.576Z,72.72
2022-09-15T20:37:36.653Z,72.72
2022-09-15T20:40:08.640Z,72.79
2022-09-15T20:42:37.209Z,73.02
2022-09-15T20:45:06.724Z,72.99
2022-09-15T20:47:34.753Z,72.90
2022-09-15T20:50:06.905Z,72.95
2022-09-15T20:52:38.434Z,73.20
2022-09-15T20:55:07.027Z,73.08
2022-09-15T20:57:37.255Z,73.42
2022-09-15T22:31:31.208Z,74.59
2022-09-15T22:33:59.159Z,74.47
2022-09-15T22:36:30.172Z,74.51
2022-09-15T22:39:05.291Z,74.97
2022-09-15T22:41:37.205Z,74.60
2022-09-15T22:44:06.065Z,74.68
2022-09-15T22:46:35.102Z,74.73
2022-09-15T22:49:03.670Z,74.82
2022-09-15T22:51:31.555Z,74.74
2022-09-15T22:53:59.700Z,74.71
2022-09-15T22:56:27.504Z,74.89
2022-09-15T22:58:56.666Z,74.90
2022-09-15T23:01:27.058Z,75.19
2022-09-15T23:03:56.309Z,75.32
2022-09-15T23:06:26.097Z,75.72
2022-09-15T23:08:55.419Z,75.63
2022-09-15T23:11:24.151Z,75.87
2022-09-15T23:13:52.324Z,75.70
2022-09-15T23:16:20.590Z,76.13
2022-09-15T23:18:49.265Z,75.95
2022-09-15T23:21:17.470Z,75.98
2022-09-15T23:23:46.775Z,75.87
2022-09-15T23:26:17.199Z,76.35
2022-09-15T23:28:45.232Z,76.42
2022-09-15T23:31:13.967Z,76.11
2022-09-15T23:33:42.808Z,76.26
2022-09-15T23:36:15.345Z,75.93
2022-09-15T23:38:43.920Z,75.64
2022-09-15T23:41:12.567Z,75.65
2022-09-15T23:43:40.858Z,75.65
2022-09-15T23:46:09.578Z,75.20
2022-09-15T23:48:38.006Z,75.39
2022-09-15T23:51:05.899Z,75.19
2022-09-15T23:53:34.068Z,74.24
2022-09-15T23:56:01.991Z,74.20
2022-09-15T23:58:29.965Z,74.47
